Time,TemperatureF,DewpointF,PressureIn,WindDirection,WindDirectionDegrees,WindSpeedMPH,WindSpeedGustMPH,Humidity,HourlyPrecipIn,Conditions,Clouds,dailyrainin,SoftwareType,DateUTC
2013-02-10 00:02:00,42.0,37.2,30.08,ESE,107,0.0,-999.0,83,-99.99,,,0.00,raj,2013-02-10 08:02:00,
2013-02-10 00:07:00,42.0,37.5,30.08,ESE,107,0.0,-999.0,84,-99.99,,,0.00,raj,2013-02-10 08:07:00,
2013-02-10 00:12:00,41.9,37.7,30.08,ESE,107,0.0,-999.0,85,-99.99,,,0.00,raj,2013-02-10 08:12:00,
2013-02-10 00:18:00,42.0,38.1,30.08,ESE,107,0.0,-999.0,86,-99.99,,,0.00,raj,2013-02-10 08:18:00,
2013-02-10 00:23:00,42.2,38.3,30.08,ESE,107,0.0,-999.0,86,-99.99,,,0.00,raj,2013-02-10 08:23:00,
2013-02-10 00:28:00,42.4,38.5,30.07,ESE,107,0.0,-999.0,86,-99.99,,,0.00,raj,2013-02-10 08:28:00,
2013-02-10 00:34:00,42.5,38.6,30.07,ESE,107,0.0,-999.0,86,-99.99,,,0.00,raj,2013-02-10 08:34:00,
2013-02-10 00:39:00,42.4,38.5,30.07,ESE,107,0.0,-999.0,86,-99.99,,,0.00,raj,2013-02-10 08:39:00,
2013-02-10 00:44:00,42.4,38.5,30.08,ESE,107,0.0,-999.0,86,-99.99,,,0.00,raj,2013-02-10 08:44:00,
2013-02-10 00:49:00,42.9,38.4,30.07,NE,47,1.0,-999.0,84,-99.99,,,0.00,raj,2013-02-10 08:49:00,
2013-02-10 00:54:00,43.7,38.3,30.07,NNW,339,0.0,-999.0,81,-99.99,,,0.00,raj,2013-02-10 08:54:00,
2013-02-10 01:00:00,44.3,38.8,30.08,NE,34,0.0,-999.0,81,-99.99,,,0.00,raj,2013-02-10 09:00:00,
2013-02-10 01:05:00,44.8,39.0,30.07,ENE,57,1.0,-999.0,80,-99.99,,,0.00,raj,2013-02-10 09:05:00,
2013-02-10 01:10:00,45.1,39.0,30.07,NNE,30,2.0,-999.0,79,-99.99,,,0.00,raj,2013-02-10 09:10:00,
2013-02-10 01:15:00,45.3,39.2,30.07,NNE,30,0.0,-999.0,79,-99.99,,,0.00,raj,2013-02-10 09:15:00,
2013-02-10 01:21:00,45.1,39.0,30.07,ENE,61,0.0,-999.0,79,-99.99,,,0.00,raj,2013-02-10 09:21:00,
2013-02-10 01:26:00,44.8,38.7,30.07,ENE,61,0.0,-999.0,79,-99.99,,,0.00,raj,2013-02-10 09:26:00,
2013-02-10 01:31:00,44.2,38.4,30.07,ENE,61,0.0,-999.0,80,-99.99,,,0.00,raj,2013-02-10 09:31:00,
2013-02-10 01:37:00,44.0,38.9,30.07,ENE,61,0.0,-999.0,82,-99.99,,,0.00,raj,2013-02-10 09:37:00,
2013-02-10 01:42:00,44.1,38.7,30.07,NE,37,1.0,-999.0,81,-99.99,,,0.00,raj,2013-02-10 09:42:00,
2013-02-10 01:47:00,44.2,39.1,30.07,NNE,29,2.0,-999.0,82,-99.99,,,0.00,raj,2013-02-10 09:47:00,
2013-02-10 01:52:00,44.5,39.0,30.07,NNE,26,0.0,-999.0,81,-99.99,,,0.00,raj,2013-02-10 09:52:00,
2013-02-10 01:58:00,44.7,39.2,30.07,NNE,22,1.0,-999.0,81,-99.99,,,0.00,raj,2013-02-10 09:58:00,
2013-02-10 02:03:00,44.8,39.7,30.07,NNE,22,0.0,-999.0,82,-99.99,,,0.00,raj,2013-02-10 10:03:00,
2013-02-10 02:08:00,44.9,39.7,30.07,NNE,22,0.0,-999.0,82,-99.99,,,0.00,raj,2013-02-10 10:08:00,
2013-02-10 02:13:00,44.9,39.7,30.07,North,360,0.0,-999.0,82,-99.99,,,0.00,raj,2013-02-10 10:13:00,
2013-02-10 02:19:00,44.8,39.7,30.07,North,360,0.0,-999.0,82,-99.99,,,0.00,raj,2013-02-10 10:19:00,
2013-02-10 02:24:00,44.6,39.5,30.07,North,360,0.0,-999.0,82,-99.99,,,0.00,raj,2013-02-10 10:24:00,
2013-02-10 02:29:00,44.3,39.2,30.07,North,360,0.0,-999.0,82,-99.99,,,0.00,raj,2013-02-10 10:29:00,
2013-02-10 02:34:00,44.0,39.2,30.07,North,360,0.0,-999.0,83,-99.99,,,0.00,raj,2013-02-10 10:34:00,
2013-02-10 02:40:00,43.5,38.7,30.07,North,360,0.0,-999.0,83,-99.99,,,0.00,raj,2013-02-10 10:40:00,
2013-02-10 02:45:00,43.2,39.0,30.07,North,360,0.0,-999.0,85,-99.99,,,0.00,raj,2013-02-10 10:45:00,
2013-02-10 02:50:00,43.0,38.8,30.07,North,360,0.0,-999.0,85,-99.99,,,0.00,raj,2013-02-10 10:50:00,
2013-02-10 02:55:00,42.7,38.8,30.06,North,360,1.0,-999.0,86,-99.99,,,0.00,raj,2013-02-10 10:55:00,
2013-02-10 03:00:00,43.1,39.2,30.07,North,360,1.0,-999.0,86,-99.99,,,0.00,raj,2013-02-10 11:00:00,
2013-02-10 03:06:00,43.7,39.5,30.07,North,360,0.0,-999.0,85,-99.99,,,0.00,raj,2013-02-10 11:06:00,
2013-02-10 03:11:00,44.0,39.8,30.06,North,360,0.0,-999.0,85,-99.99,,,0.00,raj,2013-02-10 11:11:00,
2013-02-10 03:16:00,43.9,39.7,30.06,North,360,0.0,-999.0,85,-99.99,,,0.00,raj,2013-02-10 11:16:00,
2013-02-10 03:21:00,43.6,39.1,30.06,North,360,0.0,-999.0,84,-99.99,,,0.00,raj,2013-02-10 11:21:00,
2013-02-10 03:27:00,43.3,39.1,30.06,North,360,0.0,-999.0,85,-99.99,,,0.00,raj,2013-02-10 11:27:00,
2013-02-10 03:32:00,43.2,39.6,30.06,North,360,0.0,-999.0,87,-99.99,,,0.00,raj,2013-02-10 11:32:00,
2013-02-10 03:37:00,43.1,39.2,30.06,North,360,0.0,-999.0,86,-99.99,,,0.00,raj,2013-02-10 11:37:00,
2013-02-10 03:43:00,42.9,39.3,30.06,North,360,0.0,-999.0,87,-99.99,,,0.00,raj,2013-02-10 11:43:00,
2013-02-10 03:48:00,42.7,39.1,30.06,North,360,0.0,-999.0,87,-99.99,,,0.00,raj,2013-02-10 11:48:00,
2013-02-10 03:54:00,42.5,39.2,30.06,North,360,0.0,-999.0,88,-99.99,,,0.00,raj,2013-02-10 11:54:00,
2013-02-10 03:59:00,42.5,39.5,30.06,North,360,0.0,-999.0,89,-99.99,,,0.00,raj,2013-02-10 11:59:00,
2013-02-10 04:04:00,42.8,39.5,30.06,North,360,0.0,-999.0,88,-99.99,,,0.00,raj,2013-02-10 12:04:00,
2013-02-10 04:10:00,43.0,39.7,30.06,North,360,0.0,-999.0,88,-99.99,,,0.00,raj,2013-02-10 12:10:00,
2013-02-10 04:15:00,43.2,39.9,30.06,North,360,0.0,-999.0,88,-99.99,,,0.00,raj,2013-02-10 12:15:00,
2013-02-10 04:20:00,43.3,40.0,30.06,North,360,0.0,-999.0,88,-99.99,,,0.00,raj,2013-02-10 12:20:00,
2013-02-10 04:25:00,43.1,39.5,30.06,North,360,0.0,-999.0,87,-99.99,,,0.00,raj,2013-02-10 12:25:00,
2013-02-10 04:30:00,42.7,39.1,30.06,North,360,0.0,-999.0,87,-99.99,,,0.00,raj,2013-02-10 12:30:00,
2013-02-10 04:36:00,42.4,39.1,30.06,North,360,0.0,-999.0,88,-99.99,,,0.00,raj,2013-02-10 12:36:00,
2013-02-10 04:41:00,42.2,39.2,30.06,North,360,0.0,-999.0,89,-99.99,,,0.00,raj,2013-02-10 12:41:00,
2013-02-10 04:46:00,41.9,38.9,30.06,North,360,0.0,-999.0,89,-99.99,,,0.00,raj,2013-02-10 12:46:00,
2013-02-10 04:52:00,41.6,38.6,30.06,North,360,0.0,-999.0,89,-99.99,,,0.00,raj,2013-02-10 12:52:00,
2013-02-10 04:57:00,41.5,38.8,30.06,North,360,0.0,-999.0,90,-99.99,,,0.00,raj,2013-02-10 12:57:00,
2013-02-10 05:02:00,41.5,38.8,30.06,North,360,0.0,-999.0,90,-99.99,,,0.00,raj,2013-02-10 13:02:00,
2013-02-10 05:08:00,41.3,38.6,30.06,North,360,0.0,-999.0,90,-99.99,,,0.00,raj,2013-02-10 13:08:00,
2013-02-10 05:13:00,41.0,38.3,30.06,North,360,0.0,-999.0,90,-99.99,,,0.00,raj,2013-02-10 13:13:00,
2013-02-10 05:18:00,40.8,38.1,30.06,North,360,0.0,-999.0,90,-99.99,,,0.00,raj,2013-02-10 13:18:00,
2013-02-10 05:23:00,40.3,37.3,30.06,North,360,0.0,-999.0,89,-99.99,,,0.00,raj,2013-02-10 13:23:00,
2013-02-10 05:29:00,39.8,37.1,30.06,North,360,0.0,-999.0,90,-99.99,,,0.00,raj,2013-02-10 13:29:00,
2013-02-10 05:34:00,39.6,37.2,30.06,North,360,0.0,-999.0,91,-99.99,,,0.00,raj,2013-02-10 13:34:00,
2013-02-10 05:39:00,39.5,37.4,30.06,North,360,0.0,-999.0,92,-99.99,,,0.00,raj,2013-02-10 13:39:00,
2013-02-10 05:44:00,39.5,37.4,30.06,North,360,0.0,-999.0,92,-99.99,,,0.00,raj,2013-02-10 13:44:00,
2013-02-10 05:50:00,39.6,37.5,30.06,North,360,0.0,-999.0,92,-99.99,,,0.00,raj,2013-02-10 13:50:00,
2013-02-10 05:55:00,39.6,37.2,30.06,North,360,0.0,-999.0,91,-99.99,,,0.00,raj,2013-02-10 13:55:00,
2013-02-10 06:00:00,39.3,37.2,30.06,North,360,0.0,-999.0,92,-99.99,,,0.00,raj,2013-02-10 14:00:00,
2013-02-10 06:05:00,39.2,36.8,30.06,North,360,0.0,-999.0,91,-99.99,,,0.00,raj,2013-02-10 14:05:00,
2013-02-10 06:11:00,39.0,36.9,30.06,North,360,0.0,-999.0,92,-99.99,,,0.00,raj,2013-02-10 14:11:00,
2013-02-10 06:16:00,39.1,36.7,30.06,North,360,0.0,-999.0,91,-99.99,,,0.00,raj,2013-02-10 14:16:00,
2013-02-10 06:21:00,38.9,36.5,30.06,North,360,0.0,-999.0,91,-99.99,,,0.00,raj,2013-02-10 14:21:00,
2013-02-10 06:27:00,38.9,36.5,30.06,North,360,0.0,-999.0,91,-99.99,,,0.00,raj,2013-02-10 14:27:00,
2013-02-10 06:32:00,38.8,36.4,30.06,North,360,0.0,-999.0,91,-99.99,,,0.00,raj,2013-02-10 14:32:00,
2013-02-10 06:37:00,38.6,36.2,30.06,North,360,0.0,-999.0,91,-99.99,,,0.00,raj,2013-02-10 14:37:00,
2013-02-10 06:43:00,38.5,36.1,30.07,North,360,0.0,-999.0,91,-99.99,,,0.00,raj,2013-02-10 14:43:00,
2013-02-10 06:48:00,38.3,35.9,30.07,North,360,0.0,-999.0,91,-99.99,,,0.00,raj,2013-02-10 14:48:00,
2013-02-10 06:53:00,38.2,35.8,30.07,North,360,0.0,-999.0,91,-99.99,,,0.00,raj,2013-02-10 14:53:00,
2013-02-10 06:59:00,38.2,35.8,30.07,North,360,0.0,-999.0,91,-99.99,,,0.00,raj,2013-02-10 14:59:00,
2013-02-10 07:04:00,38.3,35.9,30.07,North,360,0.0,-999.0,91,-99.99,,,0.00,raj,2013-02-10 15:04:00,
2013-02-10 07:09:00,38.4,36.0,30.07,North,360,0.0,-999.0,91,-99.99,,,0.00,raj,2013-02-10 15:09:00,
2013-02-10 07:15:00,38.4,36.0,30.07,North,360,0.0,-999.0,91,-99.99,,,0.00,raj,2013-02-10 15:15:00,
2013-02-10 07:20:00,38.5,36.1,30.08,North,360,0.0,-999.0,91,-99.99,,,0.00,raj,2013-02-10 15:20:00,
2013-02-10 07:25:00,38.7,36.3,30.08,North,360,0.0,-999.0,91,-99.99,,,0.00,raj,2013-02-10 15:25:00,
2013-02-10 07:30:00,39.0,36.6,30.08,North,360,0.0,-999.0,91,-99.99,,,0.00,raj,2013-02-10 15:30:00,
2013-02-10 07:36:00,39.2,36.8,30.08,North,360,0.0,-999.0,91,-99.99,,,0.00,raj,2013-02-10 15:36:00,
2013-02-10 07:41:00,39.6,36.9,30.08,North,360,0.0,-999.0,90,-99.99,,,0.00,raj,2013-02-10 15:41:00,
2013-02-10 07:46:00,40.2,37.2,30.08,North,360,0.0,-999.0,89,-99.99,,,0.00,raj,2013-02-10 15:46:00,
2013-02-10 07:52:00,40.7,37.7,30.08,North,360,0.0,-999.0,89,-99.99,,,0.00,raj,2013-02-10 15:52:00,
2013-02-10 07:57:00,41.2,38.2,30.08,North,360,0.0,-999.0,89,-99.99,,,0.00,raj,2013-02-10 15:57:00,
2013-02-10 08:02:00,41.9,38.0,30.08,North,360,0.0,-999.0,86,-99.99,,,0.00,raj,2013-02-10 16:02:00,
2013-02-10 08:08:00,42.6,39.0,30.09,North,360,0.0,-999.0,87,-99.99,,,0.00,raj,2013-02-10 16:08:00,
2013-02-10 08:13:00,43.2,39.0,30.09,North,360,0.0,-999.0,85,-99.99,,,0.00,raj,2013-02-10 16:13:00,
2013-02-10 08:18:00,44.1,39.9,30.09,North,360,0.0,-999.0,85,-99.99,,,0.00,raj,2013-02-10 16:18:00,
2013-02-10 08:23:00,45.1,40.6,30.09,North,360,0.0,-999.0,84,-99.99,,,0.00,raj,2013-02-10 16:23:00,
2013-02-10 08:28:00,46.1,40.3,30.09,North,360,0.0,-999.0,80,-99.99,,,0.00,raj,2013-02-10 16:28:00,
2013-02-10 08:34:00,47.6,39.7,30.09,North,360,0.0,-999.0,74,-99.99,,,0.00,raj,2013-02-10 16:34:00,
2013-02-10 08:39:00,49.3,42.1,30.09,North,360,0.0,-999.0,76,-99.99,,,0.00,raj,2013-02-10 16:39:00,
2013-02-10 08:45:00,51.2,42.5,30.09,North,360,0.0,-999.0,72,-99.99,,,0.00,raj,2013-02-10 16:45:00,
2013-02-10 08:50:00,52.3,44.3,30.08,North,360,0.0,-999.0,74,-99.99,,,0.00,raj,2013-02-10 16:50:00,
2013-02-10 08:55:00,53.4,43.9,30.08,NNW,336,0.0,-999.0,70,-99.99,,,0.00,raj,2013-02-10 16:55:00,
2013-02-10 09:01:00,53.9,44.3,30.08,SW,215,2.0,-999.0,70,-99.99,,,0.00,raj,2013-02-10 17:01:00,
2013-02-10 09:06:00,54.1,45.3,30.08,SW,215,2.0,-999.0,72,-99.99,,,0.00,raj,2013-02-10 17:06:00,
2013-02-10 09:11:00,54.6,45.8,30.08,West,279,0.0,-999.0,72,-99.99,,,0.00,raj,2013-02-10 17:11:00,
2013-02-10 09:16:00,55.0,45.8,30.08,WSW,240,3.0,-999.0,71,-99.99,,,0.00,raj,2013-02-10 17:16:00,
2013-02-10 09:22:00,55.2,44.8,30.08,SSW,211,3.0,-999.0,68,-99.99,,,0.00,raj,2013-02-10 17:22:00,
2013-02-10 09:27:00,55.5,44.7,30.08,SW,234,1.0,-999.0,67,-99.99,,,0.00,raj,2013-02-10 17:27:00,
2013-02-10 09:32:00,55.6,44.4,30.08,SW,214,3.0,-999.0,66,-99.99,,,0.00,raj,2013-02-10 17:32:00,
2013-02-10 09:37:00,55.4,44.6,30.08,SSW,200,1.0,-999.0,67,-99.99,,,0.00,raj,2013-02-10 17:37:00,
2013-02-10 09:43:00,55.3,45.3,30.08,WSW,252,2.0,-999.0,69,-99.99,,,0.00,raj,2013-02-10 17:43:00,
2013-02-10 09:48:00,55.4,44.6,30.08,SSW,200,4.0,-999.0,67,-99.99,,,0.00,raj,2013-02-10 17:48:00,
2013-02-10 09:53:00,55.2,44.0,30.08,WSW,253,2.0,-999.0,66,-99.99,,,0.00,raj,2013-02-10 17:53:00,
2013-02-10 09:59:00,55.0,44.6,30.08,SSW,194,2.0,-999.0,68,-99.99,,,0.00,raj,2013-02-10 17:59:00,
2013-02-10 10:04:00,54.9,44.5,30.08,SW,233,2.0,-999.0,68,-99.99,,,0.00,raj,2013-02-10 18:04:00,
2013-02-10 10:09:00,55.1,44.3,30.08,SW,214,3.0,-999.0,67,-99.99,,,0.00,raj,2013-02-10 18:09:00,
2013-02-10 10:14:00,55.2,44.4,30.08,SSW,202,3.0,-999.0,67,-99.99,,,0.00,raj,2013-02-10 18:14:00,
2013-02-10 10:20:00,55.2,44.8,30.08,SW,223,2.0,-999.0,68,-99.99,,,0.00,raj,2013-02-10 18:20:00,
2013-02-10 10:25:00,55.7,46.5,30.08,SSW,207,1.0,-999.0,71,-99.99,,,0.00,raj,2013-02-10 18:25:00,
2013-02-10 10:30:00,56.0,44.4,30.08,SSW,197,4.0,-999.0,65,-99.99,,,0.00,raj,2013-02-10 18:30:00,
2013-02-10 10:36:00,55.4,44.6,30.08,SW,225,4.0,-999.0,67,-99.99,,,0.00,raj,2013-02-10 18:36:00,
2013-02-10 10:41:00,55.1,45.1,30.08,SW,216,5.0,-999.0,69,-99.99,,,0.00,raj,2013-02-10 18:41:00,
2013-02-10 10:46:00,55.5,45.5,30.08,West,271,6.0,-999.0,69,-99.99,,,0.00,raj,2013-02-10 18:46:00,
2013-02-10 10:52:00,55.5,45.9,30.08,SSW,210,1.0,-999.0,70,-99.99,,,0.00,raj,2013-02-10 18:52:00,
2013-02-10 10:57:00,55.7,44.9,30.07,SW,229,0.0,-999.0,67,-99.99,,,0.00,raj,2013-02-10 18:57:00,
2013-02-10 11:02:00,56.3,47.0,30.07,SW,216,4.0,-999.0,71,-99.99,,,0.00,raj,2013-02-10 19:02:00,
2013-02-10 11:07:00,56.0,45.2,30.07,SSW,199,2.0,-999.0,67,-99.99,,,0.00,raj,2013-02-10 19:07:00,
2013-02-10 11:13:00,55.9,45.5,30.07,SW,217,3.0,-999.0,68,-99.99,,,0.00,raj,2013-02-10 19:13:00,
2013-02-10 11:18:00,56.3,46.3,30.07,SSW,196,2.0,-999.0,69,-99.99,,,0.00,raj,2013-02-10 19:18:00,
2013-02-10 11:23:00,57.1,47.0,30.07,SSW,207,5.0,-999.0,69,-99.99,,,0.00,raj,2013-02-10 19:23:00,
2013-02-10 11:28:00,56.8,45.2,30.06,SW,217,3.0,-999.0,65,-99.99,,,0.00,raj,2013-02-10 19:28:00,
2013-02-10 11:34:00,57.0,46.5,30.06,SW,222,3.0,-999.0,68,-99.99,,,0.00,raj,2013-02-10 19:34:00,
2013-02-10 11:39:00,57.2,46.3,30.06,SSW,200,1.0,-999.0,67,-99.99,,,0.00,raj,2013-02-10 19:39:00,
2013-02-10 11:44:00,56.8,46.0,30.06,SW,221,3.0,-999.0,67,-99.99,,,0.00,raj,2013-02-10 19:44:00,
2013-02-10 11:50:00,56.7,46.7,30.06,SSW,206,2.0,-999.0,69,-99.99,,,0.00,raj,2013-02-10 19:50:00,
2013-02-10 11:55:00,57.0,46.5,30.05,SW,236,5.0,-999.0,68,-99.99,,,0.00,raj,2013-02-10 19:55:00,
2013-02-10 12:00:00,56.8,46.4,30.05,WSW,244,4.0,-999.0,68,-99.99,,,0.00,raj,2013-02-10 20:00:00,
2013-02-10 12:06:00,56.8,47.1,30.05,SSW,196,4.0,-999.0,70,-99.99,,,0.00,raj,2013-02-10 20:06:00,
2013-02-10 12:11:00,57.0,46.5,30.05,SSW,192,3.0,-999.0,68,-99.99,,,0.00,raj,2013-02-10 20:11:00,
2013-02-10 12:16:00,57.3,47.6,30.05,SW,223,1.0,-999.0,70,-99.99,,,0.00,raj,2013-02-10 20:16:00,
2013-02-10 12:21:00,56.9,46.8,30.05,SW,227,3.0,-999.0,69,-99.99,,,0.00,raj,2013-02-10 20:21:00,
2013-02-10 12:27:00,56.6,46.9,30.04,SSW,207,1.0,-999.0,70,-99.99,,,0.00,raj,2013-02-10 20:27:00,
2013-02-10 12:32:00,56.0,46.4,30.04,WSW,237,4.0,-999.0,70,-99.99,,,0.00,raj,2013-02-10 20:32:00,
2013-02-10 12:37:00,55.5,46.3,30.04,WSW,245,1.0,-999.0,71,-99.99,,,0.00,raj,2013-02-10 20:37:00,
2013-02-10 12:42:00,55.8,46.5,30.04,South,184,1.0,-999.0,71,-99.99,,,0.00,raj,2013-02-10 20:42:00,
2013-02-10 12:48:00,55.5,46.3,30.03,SSW,192,2.0,-999.0,71,-99.99,,,0.00,raj,2013-02-10 20:48:00,
2013-02-10 12:53:00,54.9,46.4,30.03,WSW,246,3.0,-999.0,73,-99.99,,,0.00,raj,2013-02-10 20:53:00,
2013-02-10 12:58:00,54.7,46.2,30.03,SSW,207,1.0,-999.0,73,-99.99,,,0.00,raj,2013-02-10 20:58:00,
2013-02-10 13:03:00,54.6,45.8,30.03,SW,226,2.0,-999.0,72,-99.99,,,0.00,raj,2013-02-10 21:03:00,
2013-02-10 13:09:00,54.6,46.5,30.03,SW,223,2.0,-999.0,74,-99.99,,,0.00,raj,2013-02-10 21:09:00,
2013-02-10 13:14:00,54.5,46.0,30.02,WSW,246,2.0,-999.0,73,-99.99,,,0.00,raj,2013-02-10 21:14:00,
2013-02-10 13:20:00,54.2,46.1,30.02,SW,225,3.0,-999.0,74,-99.99,,,0.00,raj,2013-02-10 21:20:00,
2013-02-10 13:25:00,53.9,45.8,30.02,SSW,192,3.0,-999.0,74,-99.99,,,0.00,raj,2013-02-10 21:25:00,
2013-02-10 13:30:00,53.7,45.6,30.02,SW,216,2.0,-999.0,74,-99.99,,,0.00,raj,2013-02-10 21:30:00,
2013-02-10 13:35:00,53.3,45.6,30.02,WSW,252,3.0,-999.0,75,-99.99,,,0.00,raj,2013-02-10 21:35:00,
2013-02-10 13:41:00,53.6,45.9,30.02,SSW,210,1.0,-999.0,75,-99.99,,,0.00,raj,2013-02-10 21:41:00,
2013-02-10 13:46:00,54.8,46.3,30.01,West,260,1.0,-999.0,73,-99.99,,,0.00,raj,2013-02-10 21:46:00,
2013-02-10 13:51:00,56.2,46.9,30.01,SW,216,2.0,-999.0,71,-99.99,,,0.00,raj,2013-02-10 21:51:00,
2013-02-10 13:56:00,57.1,47.8,30.01,SSW,198,5.0,-999.0,71,-99.99,,,0.00,raj,2013-02-10 21:56:00,
2013-02-10 14:01:00,57.4,46.9,30.01,South,184,6.0,-999.0,68,-99.99,,,0.00,raj,2013-02-10 22:01:00,
2013-02-10 14:07:00,56.9,47.2,30.01,SW,221,1.0,-999.0,70,-99.99,,,0.00,raj,2013-02-10 22:07:00,
2013-02-10 14:12:00,57.0,46.5,30.01,WSW,250,2.0,-999.0,68,-99.99,,,0.00,raj,2013-02-10 22:12:00,
2013-02-10 14:18:00,56.8,46.8,30.01,WSW,248,4.0,-999.0,69,-99.99,,,0.00,raj,2013-02-10 22:18:00,
2013-02-10 14:23:00,56.4,45.6,30.02,SSW,205,1.0,-999.0,67,-99.99,,,0.00,raj,2013-02-10 22:23:00,
2013-02-10 14:28:00,55.7,46.1,30.02,WSW,239,3.0,-999.0,70,-99.99,,,0.00,raj,2013-02-10 22:28:00,
2013-02-10 14:33:00,54.7,45.9,30.02,SW,232,2.0,-999.0,72,-99.99,,,0.00,raj,2013-02-10 22:33:00,
2013-02-10 14:39:00,54.5,46.4,30.02,South,183,1.0,-999.0,74,-99.99,,,0.00,raj,2013-02-10 22:39:00,
2013-02-10 14:44:00,54.4,45.6,30.02,SSW,198,3.0,-999.0,72,-99.99,,,0.00,raj,2013-02-10 22:44:00,
2013-02-10 14:49:00,54.7,45.9,30.02,SSW,213,0.0,-999.0,72,-99.99,,,0.00,raj,2013-02-10 22:49:00,
2013-02-10 14:54:00,55.4,46.2,30.01,WSW,252,4.0,-999.0,71,-99.99,,,0.00,raj,2013-02-10 22:54:00,
2013-02-10 15:00:00,55.6,46.0,30.01,SW,226,3.0,-999.0,70,-99.99,,,0.00,raj,2013-02-10 23:00:00,
2013-02-10 15:05:00,55.8,46.2,30.01,SSW,193,1.0,-999.0,70,-99.99,,,0.00,raj,2013-02-10 23:05:00,
2013-02-10 15:10:00,56.3,47.0,30.01,South,169,0.0,-999.0,71,-99.99,,,0.00,raj,2013-02-10 23:10:00,
2013-02-10 15:15:00,57.1,46.7,30.01,SSW,213,2.0,-999.0,68,-99.99,,,0.00,raj,2013-02-10 23:15:00,
2013-02-10 15:21:00,57.3,45.7,30.01,South,182,3.0,-999.0,65,-99.99,,,0.00,raj,2013-02-10 23:21:00,
2013-02-10 15:26:00,56.7,45.5,30.01,WSW,245,2.0,-999.0,66,-99.99,,,0.00,raj,2013-02-10 23:26:00,
2013-02-10 15:31:00,56.4,45.6,30.01,SSW,208,3.0,-999.0,67,-99.99,,,0.00,raj,2013-02-10 23:31:00,
2013-02-10 15:36:00,56.3,45.1,30.01,SW,235,2.0,-999.0,66,-99.99,,,0.00,raj,2013-02-10 23:36:00,
2013-02-10 15:41:00,56.1,45.7,30.01,WNW,288,0.0,-999.0,68,-99.99,,,0.00,raj,2013-02-10 23:41:00,
2013-02-10 15:47:00,55.9,46.3,30.01,WSW,237,1.0,-999.0,70,-99.99,,,0.00,raj,2013-02-10 23:47:00,
2013-02-10 15:52:00,55.7,46.1,30.01,WSW,249,0.0,-999.0,70,-99.99,,,0.00,raj,2013-02-10 23:52:00,
2013-02-10 15:57:00,55.7,46.1,30.01,South,190,0.0,-999.0,70,-99.99,,,0.00,raj,2013-02-10 23:57:00,
2013-02-10 16:02:00,55.8,46.2,30.01,SW,234,2.0,-999.0,70,-99.99,,,0.00,raj,2013-02-11 00:02:00,
2013-02-10 16:08:00,56.2,46.5,30.01,NW,321,2.0,-999.0,70,-99.99,,,0.00,raj,2013-02-11 00:08:00,
2013-02-10 16:13:00,56.3,46.7,30.01,WSW,240,3.0,-999.0,70,-99.99,,,0.00,raj,2013-02-11 00:13:00,
2013-02-10 16:18:00,56.4,46.8,30.01,WSW,237,2.0,-999.0,70,-99.99,,,0.00,raj,2013-02-11 00:18:00,
2013-02-10 16:24:00,56.2,46.2,30.01,WSW,257,2.0,-999.0,69,-99.99,,,0.00,raj,2013-02-11 00:24:00,
2013-02-10 16:29:00,56.0,46.4,30.01,SW,222,2.0,-999.0,70,-99.99,,,0.00,raj,2013-02-11 00:29:00,
2013-02-10 16:34:00,55.8,46.9,30.01,SSW,192,3.0,-999.0,72,-99.99,,,0.00,raj,2013-02-11 00:34:00,
2013-02-10 16:39:00,55.5,46.6,30.02,SSW,201,2.0,-999.0,72,-99.99,,,0.00,raj,2013-02-11 00:39:00,
2013-02-10 16:45:00,55.2,46.7,30.01,SSW,211,2.0,-999.0,73,-99.99,,,0.00,raj,2013-02-11 00:45:00,
2013-02-10 16:50:00,55.0,46.5,30.02,WSW,239,1.0,-999.0,73,-99.99,,,0.00,raj,2013-02-11 00:50:00,
2013-02-10 16:55:00,54.7,46.6,30.01,WSW,241,2.0,-999.0,74,-99.99,,,0.00,raj,2013-02-11 00:55:00,
2013-02-10 17:01:00,54.2,46.8,30.01,West,267,0.0,-999.0,76,-99.99,,,0.00,raj,2013-02-11 01:01:00,
2013-02-10 17:06:00,53.7,46.7,30.01,WSW,240,0.0,-999.0,77,-99.99,,,0.00,raj,2013-02-11 01:06:00,
2013-02-10 17:11:00,53.4,46.4,30.02,SW,234,0.0,-999.0,77,-99.99,,,0.00,raj,2013-02-11 01:11:00,
2013-02-10 17:16:00,53.2,46.5,30.02,SSW,192,1.0,-999.0,78,-99.99,,,0.00,raj,2013-02-11 01:16:00,
2013-02-10 17:22:00,52.9,46.6,30.02,NW,305,0.0,-999.0,79,-99.99,,,0.00,raj,2013-02-11 01:22:00,
2013-02-10 17:27:00,52.6,46.6,30.02,WSW,244,0.0,-999.0,80,-99.99,,,0.00,raj,2013-02-11 01:27:00,
2013-02-10 17:32:00,52.3,46.3,30.02,SSW,210,0.0,-999.0,80,-99.99,,,0.00,raj,2013-02-11 01:32:00,
2013-02-10 17:38:00,51.9,46.3,30.02,SSW,210,0.0,-999.0,81,-99.99,,,0.00,raj,2013-02-11 01:38:00,
2013-02-10 17:43:00,51.6,46.0,30.02,SSW,210,0.0,-999.0,81,-99.99,,,0.00,raj,2013-02-11 01:43:00,
2013-02-10 17:48:00,51.2,45.9,30.02,SSW,210,0.0,-999.0,82,-99.99,,,0.00,raj,2013-02-11 01:48:00,
2013-02-10 17:53:00,50.9,45.6,30.02,SSW,210,0.0,-999.0,82,-99.99,,,0.00,raj,2013-02-11 01:53:00,
2013-02-10 17:59:00,50.6,45.3,30.02,SSW,210,0.0,-999.0,82,-99.99,,,0.00,raj,2013-02-11 01:59:00,
2013-02-10 18:04:00,50.2,45.2,30.02,SSW,210,0.0,-999.0,83,-99.99,,,0.00,raj,2013-02-11 02:04:00,
2013-02-10 18:09:00,49.7,45.1,30.02,SSW,210,0.0,-999.0,84,-99.99,,,0.00,raj,2013-02-11 02:09:00,
2013-02-10 18:14:00,49.3,45.0,30.02,SSW,210,0.0,-999.0,85,-99.99,,,0.00,raj,2013-02-11 02:14:00,
2013-02-10 18:20:00,49.0,45.0,30.02,SSW,210,0.0,-999.0,86,-99.99,,,0.00,raj,2013-02-11 02:20:00,
2013-02-10 18:25:00,48.7,44.7,30.02,SSW,210,0.0,-999.0,86,-99.99,,,0.00,raj,2013-02-11 02:25:00,
2013-02-10 18:30:00,48.3,44.3,30.02,SSW,210,0.0,-999.0,86,-99.99,,,0.00,raj,2013-02-11 02:30:00,
2013-02-10 18:35:00,47.9,44.2,30.02,SSW,210,0.0,-999.0,87,-99.99,,,0.00,raj,2013-02-11 02:35:00,
2013-02-10 18:41:00,47.3,43.6,30.03,SSW,210,0.0,-999.0,87,-99.99,,,0.00,raj,2013-02-11 02:41:00,
2013-02-10 18:46:00,47.0,43.9,30.02,SSW,210,0.0,-999.0,89,-99.99,,,0.00,raj,2013-02-11 02:46:00,
2013-02-10 18:52:00,46.8,43.7,30.02,SSW,210,0.0,-999.0,89,-99.99,,,0.00,raj,2013-02-11 02:52:00,
2013-02-10 18:57:00,46.4,43.3,30.02,SSW,210,0.0,-999.0,89,-99.99,,,0.00,raj,2013-02-11 02:57:00,
2013-02-10 19:02:00,46.0,42.9,30.02,SSW,210,0.0,-999.0,89,-99.99,,,0.00,raj,2013-02-11 03:02:00,
2013-02-10 19:07:00,45.8,43.3,30.02,SSW,210,0.0,-999.0,91,-99.99,,,0.00,raj,2013-02-11 03:07:00,
2013-02-10 19:13:00,45.7,43.2,30.02,SSW,210,0.0,-999.0,91,-99.99,,,0.00,raj,2013-02-11 03:13:00,
2013-02-10 19:18:00,45.6,43.1,30.02,SSW,210,0.0,-999.0,91,-99.99,,,0.00,raj,2013-02-11 03:18:00,
2013-02-10 19:23:00,45.4,42.9,30.02,SSW,210,0.0,-999.0,91,-99.99,,,0.00,raj,2013-02-11 03:23:00,
2013-02-10 19:29:00,45.2,43.0,30.02,SSW,210,0.0,-999.0,92,-99.99,,,0.00,raj,2013-02-11 03:29:00,
2013-02-10 19:34:00,45.2,43.0,30.02,SSW,210,0.0,-999.0,92,-99.99,,,0.00,raj,2013-02-11 03:34:00,
2013-02-10 19:39:00,45.0,42.8,30.02,SSW,210,0.0,-999.0,92,-99.99,,,0.00,raj,2013-02-11 03:39:00,
2013-02-10 19:44:00,44.7,42.5,30.02,SSW,210,0.0,-999.0,92,-99.99,,,0.00,raj,2013-02-11 03:44:00,
2013-02-10 19:50:00,44.8,42.9,30.03,SSW,210,0.0,-999.0,93,-99.99,,,0.00,raj,2013-02-11 03:50:00,
2013-02-10 19:55:00,45.0,43.1,30.02,SSW,210,0.0,-999.0,93,-99.99,,,0.00,raj,2013-02-11 03:55:00,
2013-02-10 20:00:00,45.0,43.1,30.03,SSW,210,0.0,-999.0,93,-99.99,,,0.00,raj,2013-02-11 04:00:00,
2013-02-10 20:06:00,45.1,43.2,30.03,SSW,210,0.0,-999.0,93,-99.99,,,0.00,raj,2013-02-11 04:06:00,
2013-02-10 20:11:00,45.3,43.7,30.03,SSW,210,0.0,-999.0,94,-99.99,,,0.00,raj,2013-02-11 04:11:00,
2013-02-10 20:16:00,45.6,44.0,30.03,SSW,210,0.0,-999.0,94,-99.99,,,0.00,raj,2013-02-11 04:16:00,
2013-02-10 20:21:00,45.9,44.0,30.03,SSW,210,0.0,-999.0,93,-99.99,,,0.00,raj,2013-02-11 04:21:00,
2013-02-10 20:27:00,45.9,43.7,30.04,SSW,210,0.0,-999.0,92,-99.99,,,0.00,raj,2013-02-11 04:27:00,
2013-02-10 20:32:00,45.9,43.7,30.04,SSW,210,0.0,-999.0,92,-99.99,,,0.00,raj,2013-02-11 04:32:00,
2013-02-10 20:37:00,46.0,43.5,30.04,SSW,210,1.0,-999.0,91,-99.99,,,0.00,raj,2013-02-11 04:37:00,
2013-02-10 20:43:00,46.0,43.5,30.04,SSW,210,0.0,-999.0,91,-99.99,,,0.00,raj,2013-02-11 04:43:00,
2013-02-10 20:48:00,45.8,43.3,30.03,SSW,210,0.0,-999.0,91,-99.99,,,0.00,raj,2013-02-11 04:48:00,
2013-02-10 20:53:00,45.7,42.9,30.03,SSW,210,0.0,-999.0,90,-99.99,,,0.00,raj,2013-02-11 04:53:00,
2013-02-10 20:59:00,45.4,42.6,30.04,SSW,210,0.0,-999.0,90,-99.99,,,0.00,raj,2013-02-11 04:59:00,
2013-02-10 21:00:00,45.4,42.9,30.04,SSW,210,0.0,-999.0,91,-99.99,,,0.00,raj,2013-02-11 05:00:00,
2013-02-10 21:03:00,45.3,42.8,30.04,SSW,210,0.0,-999.0,91,-99.99,,,0.00,raj,2013-02-11 05:03:00,
2013-02-10 21:09:00,45.1,42.6,30.04,SSW,210,0.0,-999.0,91,-99.99,,,0.00,raj,2013-02-11 05:09:00,
2013-02-10 21:10:00,45.0,42.5,30.04,SSW,210,0.0,-999.0,91,-99.99,,,0.00,raj,2013-02-11 05:10:00,
2013-02-10 21:16:00,44.9,42.4,30.04,SSW,210,0.0,-999.0,91,-99.99,,,0.00,raj,2013-02-11 05:16:00,
2013-02-10 21:21:00,44.8,42.6,30.04,SSW,210,0.0,-999.0,92,-99.99,,,0.00,raj,2013-02-11 05:21:00,
2013-02-10 21:26:00,44.8,42.3,30.05,SSW,210,0.0,-999.0,91,-99.99,,,0.00,raj,2013-02-11 05:26:00,
2013-02-10 21:31:00,44.6,41.8,30.04,SSW,210,0.0,-999.0,90,-99.99,,,0.00,raj,2013-02-11 05:31:00,
2013-02-10 21:37:00,44.2,41.5,30.05,SSW,210,0.0,-999.0,90,-99.99,,,0.00,raj,2013-02-11 05:37:00,
2013-02-10 21:42:00,43.7,41.2,30.04,SSW,210,0.0,-999.0,91,-99.99,,,0.00,raj,2013-02-11 05:42:00,
2013-02-10 21:47:00,43.5,41.0,30.05,SSW,210,0.0,-999.0,91,-99.99,,,0.00,raj,2013-02-11 05:47:00,
2013-02-10 21:53:00,43.5,41.6,30.05,SSW,210,0.0,-999.0,93,-99.99,,,0.00,raj,2013-02-11 05:53:00,
2013-02-10 21:58:00,43.7,41.5,30.05,SSW,210,0.0,-999.0,92,-99.99,,,0.00,raj,2013-02-11 05:58:00,
2013-02-10 22:03:00,43.7,41.5,30.05,SSW,210,0.0,-999.0,92,-99.99,,,0.00,raj,2013-02-11 06:03:00,
2013-02-10 22:08:00,44.0,42.1,30.05,SSW,210,0.0,-999.0,93,-99.99,,,0.00,raj,2013-02-11 06:08:00,
2013-02-10 22:14:00,44.0,41.8,30.05,SSW,210,0.0,-999.0,92,-99.99,,,0.00,raj,2013-02-11 06:14:00,
2013-02-10 22:19:00,43.9,41.5,30.05,SSW,210,0.0,-999.0,91,-99.99,,,0.00,raj,2013-02-11 06:19:00,
2013-02-10 22:24:00,43.8,41.6,30.05,SSW,210,0.0,-999.0,92,-99.99,,,0.00,raj,2013-02-11 06:24:00,
2013-02-10 22:30:00,43.6,41.4,30.05,SSW,210,0.0,-999.0,92,-99.99,,,0.00,raj,2013-02-11 06:30:00,
2013-02-10 22:35:00,43.3,41.1,30.05,SSW,210,0.0,-999.0,92,-99.99,,,0.00,raj,2013-02-11 06:35:00,
2013-02-10 22:40:00,43.1,40.9,30.05,SSW,210,0.0,-999.0,92,-99.99,,,0.00,raj,2013-02-11 06:40:00,
2013-02-10 22:46:00,42.9,40.7,30.05,SSW,210,0.0,-999.0,92,-99.99,,,0.00,raj,2013-02-11 06:46:00,
2013-02-10 22:51:00,42.6,40.4,30.05,SSW,210,0.0,-999.0,92,-99.99,,,0.00,raj,2013-02-11 06:51:00,
2013-02-10 22:56:00,42.2,40.0,30.05,SSW,210,0.0,-999.0,92,-99.99,,,0.00,raj,2013-02-11 06:56:00,
2013-02-10 23:02:00,41.9,40.0,30.05,SSW,210,0.0,-999.0,93,-99.99,,,0.00,raj,2013-02-11 07:02:00,
2013-02-10 23:07:00,42.3,41.0,30.05,SSW,210,0.0,-999.0,95,-99.99,,,0.00,raj,2013-02-11 07:07:00,
2013-02-10 23:12:00,42.3,40.4,30.05,SSW,210,0.0,-999.0,93,-99.99,,,0.00,raj,2013-02-11 07:12:00,
2013-02-10 23:18:00,42.1,40.2,30.05,SSW,210,0.0,-999.0,93,-99.99,,,0.00,raj,2013-02-11 07:18:00,
2013-02-10 23:23:00,41.8,39.9,30.05,SSW,210,0.0,-999.0,93,-99.99,,,0.00,raj,2013-02-11 07:23:00,
2013-02-10 23:28:00,41.6,39.7,30.05,SSW,210,0.0,-999.0,93,-99.99,,,0.00,raj,2013-02-11 07:28:00,
2013-02-10 23:33:00,41.4,39.5,30.05,SSW,210,0.0,-999.0,93,-99.99,,,0.00,raj,2013-02-11 07:33:00,
2013-02-10 23:39:00,41.3,39.4,30.05,SSW,210,0.0,-999.0,93,-99.99,,,0.00,raj,2013-02-11 07:39:00,
2013-02-10 23:44:00,41.1,39.2,30.05,SSW,210,0.0,-999.0,93,-99.99,,,0.00,raj,2013-02-11 07:44:00,
2013-02-10 23:49:00,41.1,39.5,30.05,SSW,210,0.0,-999.0,94,-99.99,,,0.00,raj,2013-02-11 07:49:00,
2013-02-10 23:55:00,41.2,39.9,30.06,SSW,210,0.0,-999.0,95,-99.99,,,0.00,raj,2013-02-11 07:55:00,